Time;durP1;ratioP1;P1;durP2;ratioP2;P2;SDS_P1;SDS_P2;PMS_P1;PMS_P2;Temp;Humidity;BMP_temperature;BMP_pressure;BME280_temperature;BME280_humidity;BME280_pressure;Samples;Min_cycle;Max_cycle;Signal;HPM_P1;HPM_P2
2022/01/06 00:01:20;;;;;;;55.00;33.75;;;7.20;99.50;;;;;;5052905;28;20057;-72
2022/01/06 00:03:46;;;;;;;108.50;55.47;;;7.20;99.40;;;;;;5047259;28;20017;-72
2022/01/06 00:06:12;;;;;;;84.55;44.92;;;7.20;99.30;;;;;;5033197;28;20041;-72
2022/01/06 00:08:39;;;;;;;64.43;36.42;;;7.20;99.20;;;;;;5031635;28;20391;-72
2022/01/06 00:11:07;;;;;;;57.50;32.45;;;7.20;99.10;;;;;;5033197;28;20040;-73
2022/01/06 00:13:58;;;;;;;36.45;23.23;;;7.10;99.00;;;;;;5031728;28;20145;-72
2022/01/06 00:24:23;;;;;;;21.75;18.33;;;7.00;99.90;;;;;;5041419;28;20091;-72
2022/01/06 00:26:49;;;;;;;22.63;18.38;;;7.00;99.90;;;;;;5035289;28;20471;-72
2022/01/06 00:29:16;;;;;;;28.38;19.80;;;6.90;99.90;;;;;;5035592;28;20455;-72
2022/01/06 00:31:42;;;;;;;23.48;11.52;;;7.00;99.90;;;;;;5037327;28;20038;-73
2022/01/06 00:34:10;;;;;;;35.55;24.33;;;6.90;99.90;;;;;;5046049;28;20091;-73
2022/01/06 00:36:43;;;;;;;37.80;25.90;;;6.90;99.90;;;;;;5036066;28;20029;-72
2022/01/06 00:39:10;;;;;;;56.17;32.47;;;6.90;99.90;;;;;;5042546;28;20026;-72
2022/01/06 00:41:37;;;;;;;50.38;17.98;;;6.80;99.90;;;;;;5037852;28;20029;-72
2022/01/06 00:44:04;;;;;;;116.57;55.30;;;6.80;99.90;;;;;;5055121;28;20033;-72
2022/01/06 00:46:30;;;;;;;91.32;44.83;;;6.80;99.90;;;;;;5056325;28;20056;-72
2022/01/06 00:48:56;;;;;;;62.30;34.13;;;6.80;99.90;;;;;;5054846;28;20068;-72
2022/01/06 00:51:22;;;;;;;48.00;27.85;;;6.80;99.90;;;;;;5036243;28;20084;-73
2022/01/06 00:53:49;;;;;;;45.53;27.27;;;6.70;99.90;;;;;;5053884;28;20041;-72
2022/01/06 00:56:14;;;;;;;42.53;26.75;;;6.80;99.90;;;;;;5056559;28;20029;-72
2022/01/06 00:58:40;;;;;;;22.10;11.27;;;6.70;99.90;;;;;;5054740;28;20025;-72
2022/01/06 01:01:06;;;;;;;21.33;11.15;;;6.60;99.90;;;;;;5056097;28;20017;-72
2022/01/06 01:03:31;;;;;;;29.65;21.85;;;6.60;99.90;;;;;;5053132;28;20112;-72
2022/01/06 01:05:58;;;;;;;25.80;19.98;;;6.50;99.90;;;;;;5034716;28;20033;-71
2022/01/06 01:08:25;;;;;;;25.42;20.30;;;6.60;99.90;;;;;;5049327;28;20096;-72
2022/01/06 01:10:53;;;;;;;20.80;9.75;;;6.50;99.90;;;;;;5055903;28;20033;-71
2022/01/06 01:13:27;;;;;;;25.85;20.52;;;6.50;99.90;;;;;;5053511;28;20399;-71
2022/01/06 01:15:56;;;;;;;27.15;20.80;;;6.50;99.90;;;;;;5049800;28;20029;-71
2022/01/06 01:18:23;;;;;;;19.60;9.82;;;6.50;99.90;;;;;;5035808;28;20022;-72
2022/01/06 01:20:51;;;;;;;21.65;11.68;;;6.50;99.90;;;;;;5035799;28;20053;-71
2022/01/06 01:23:18;;;;;;;31.67;23.27;;;6.40;99.90;;;;;;5034028;28;20029;-72
2022/01/06 01:25:44;;;;;;;31.33;24.38;;;6.30;99.90;;;;;;5035482;28;20448;-72
2022/01/06 01:28:11;;;;;;;19.90;9.73;;;6.30;99.90;;;;;;5043341;28;20025;-72
2022/01/06 01:30:53;;;;;;;12.23;5.80;;;6.30;99.90;;;;;;5034651;28;20468;-72
2022/01/06 01:33:18;;;;;;;38.67;26.58;;;6.30;99.90;;;;;;5033493;28;20040;-72
2022/01/06 01:35:44;;;;;;;40.63;27.65;;;6.30;99.90;;;;;;5036791;28;20030;-72
2022/01/06 01:38:10;;;;;;;36.92;25.33;;;6.20;99.90;;;;;;5048569;28;20036;-71
2022/01/06 01:40:37;;;;;;;25.77;12.68;;;6.30;99.90;;;;;;5053806;28;20028;-72
2022/01/06 01:43:03;;;;;;;36.88;25.35;;;6.20;99.90;;;;;;5055326;28;20505;-72
2022/01/06 01:45:32;;;;;;;23.88;11.88;;;6.20;99.90;;;;;;5054016;28;20048;-72
2022/01/06 01:48:02;;;;;;;42.25;27.92;;;6.20;99.90;;;;;;5043919;28;20155;-72
2022/01/06 01:50:28;;;;;;;30.60;13.38;;;6.20;99.90;;;;;;5036153;28;20460;-72
2022/01/06 01:52:57;;;;;;;35.45;26.33;;;6.20;99.90;;;;;;5044682;28;20041;-72
2022/01/06 01:55:23;;;;;;;35.97;26.17;;;6.10;99.90;;;;;;5055174;28;20032;-71
2022/01/06 01:57:50;;;;;;;21.25;11.40;;;6.10;99.90;;;;;;5047995;28;20025;-71
2022/01/06 02:00:17;;;;;;;38.60;27.08;;;6.10;99.90;;;;;;5033685;28;20044;-71
2022/01/06 02:02:43;;;;;;;35.67;25.52;;;6.10;99.90;;;;;;5034941;28;20053;-72
2022/01/06 02:05:10;;;;;;;33.83;26.33;;;6.10;99.90;;;;;;5034731;28;20083;-72
2022/01/06 02:07:38;;;;;;;18.35;8.70;;;6.10;99.90;;;;;;5039059;28;20017;-72
2022/01/06 02:10:05;;;;;;;32.15;24.25;;;6.10;99.90;;;;;;5033321;28;20036;-72
2022/01/06 02:12:35;;;;;;;36.22;25.92;;;6.00;99.90;;;;;;5037991;28;20049;-71
2022/01/06 02:15:01;;;;;;;44.15;29.70;;;6.10;99.90;;;;;;5053317;28;20025;-72
2022/01/06 02:17:26;;;;;;;40.28;14.90;;;6.00;99.90;;;;;;5053346;28;20025;-72
2022/01/06 02:19:53;;;;;;;26.45;10.90;;;6.00;99.90;;;;;;5052778;28;20029;-72
2022/01/06 02:22:19;;;;;;;51.22;31.45;;;6.00;99.90;;;;;;5054510;28;20025;-72
2022/01/06 02:24:45;;;;;;;49.40;31.88;;;5.90;99.90;;;;;;5054394;28;20360;-72
2022/01/06 02:27:11;;;;;;;53.75;33.63;;;6.00;99.90;;;;;;5052345;28;20025;-72
2022/01/06 02:29:36;;;;;;;57.78;35.67;;;6.00;99.90;;;;;;5039372;28;20485;-71
2022/01/06 02:32:10;;;;;;;30.50;13.52;;;6.00;99.90;;;;;;5032927;28;20029;-72
2022/01/06 02:34:36;;;;;;;48.75;31.15;;;6.00;99.90;;;;;;5034409;28;20048;-71
2022/01/06 02:37:03;;;;;;;17.40;7.65;;;5.90;99.90;;;;;;5039339;28;20456;-72
2022/01/06 02:39:29;;;;;;;49.35;32.10;;;6.00;99.90;;;;;;5054873;28;20029;-72
2022/01/06 02:41:54;;;;;;;47.17;33.35;;;5.90;99.90;;;;;;5052937;28;20021;-72
2022/01/06 02:44:24;;;;;;;30.88;14.93;;;5.90;99.90;;;;;;5053485;28;20149;-72
2022/01/06 02:46:50;;;;;;;46.00;30.35;;;5.80;99.90;;;;;;5050683;28;20041;-71
2022/01/06 02:49:15;;;;;;;37.50;26.75;;;5.80;99.90;;;;;;5034027;28;20036;-72
2022/01/06 02:51:42;;;;;;;37.17;27.08;;;5.80;99.90;;;;;;5032829;28;20029;-72
2022/01/06 02:54:08;;;;;;;39.15;28.48;;;5.80;99.90;;;;;;5049857;28;20499;-72
2022/01/06 02:56:33;;;;;;;35.95;27.80;;;5.80;99.90;;;;;;5049114;28;20037;-71
2022/01/06 02:58:59;;;;;;;22.08;10.68;;;5.80;99.90;;;;;;5032422;28;20029;-71
2022/01/06 03:01:25;;;;;;;26.75;13.05;;;5.70;99.90;;;;;;5032760;28;20034;-72
2022/01/06 03:03:51;;;;;;;26.77;11.75;;;5.70;99.90;;;;;;5033966;28;20029;-71
2022/01/06 03:06:16;;;;;;;33.47;24.50;;;5.70;99.90;;;;;;5034645;28;20040;-72
2022/01/06 03:08:42;;;;;;;33.45;25.75;;;5.60;99.90;;;;;;5051496;28;20071;-72
2022/01/06 03:11:08;;;;;;;21.08;11.48;;;5.70;99.90;;;;;;5053732;28;20443;-72
2022/01/06 03:13:34;;;;;;;30.92;24.10;;;5.70;99.90;;;;;;5048833;28;20049;-71
2022/01/06 03:16:01;;;;;;;18.30;10.52;;;5.60;99.90;;;;;;5032231;28;20399;-71
2022/01/06 03:18:27;;;;;;;20.80;10.73;;;5.60;99.90;;;;;;5016176;28;20476;-72
2022/01/06 03:20:53;;;;;;;34.22;24.33;;;5.50;99.90;;;;;;5032469;28;20486;-71
2022/01/06 03:23:19;;;;;;;22.73;12.02;;;5.50;99.90;;;;;;5034147;28;20065;-71
2022/01/06 03:25:45;;;;;;;32.85;25.33;;;5.50;99.90;;;;;;5034541;28;20068;-72
2022/01/06 03:28:11;;;;;;;34.35;24.90;;;5.50;99.90;;;;;;5033707;28;20079;-73
2022/01/06 03:30:37;;;;;;;34.47;25.48;;;5.50;99.90;;;;;;5034613;28;20442;-72
2022/01/06 03:33:03;;;;;;;21.05;11.02;;;5.50;99.90;;;;;;5052656;28;20541;-72
2022/01/06 03:35:29;;;;;;;20.75;11.00;;;5.50;99.90;;;;;;5052098;28;20360;-73
2022/01/06 03:37:55;;;;;;;34.60;25.50;;;5.50;99.90;;;;;;5033866;28;20147;-73
2022/01/06 03:40:21;;;;;;;43.25;34.22;;;5.40;99.90;;;;;;5033745;28;20109;-73
2022/01/06 03:42:48;;;;;;;31.55;16.05;;;5.40;99.90;;;;;;5033470;28;20073;-73
2022/01/06 03:45:17;;;;;;;37.65;30.30;;;5.50;99.90;;;;;;5041040;28;20379;-72
2022/01/06 03:47:43;;;;;;;40.47;32.42;;;5.50;99.90;;;;;;5034895;28;20029;-72
2022/01/06 03:50:13;;;;;;;25.50;14.02;;;5.60;99.90;;;;;;5032267;28;20029;-73
2022/01/06 03:52:38;;;;;;;40.63;31.48;;;5.60;99.90;;;;;;5033396;28;20132;-72
2022/01/06 03:55:10;;;;;;;43.75;33.88;;;5.50;99.90;;;;;;5034993;28;20048;-72
2022/01/06 03:57:36;;;;;;;33.17;15.43;;;5.50;99.90;;;;;;5053279;28;20036;-72
2022/01/06 04:00:07;;;;;;;33.05;15.13;;;5.50;99.90;;;;;;5055852;28;20033;-72
2022/01/06 04:02:34;;;;;;;50.22;35.60;;;5.40;99.90;;;;;;5055127;28;20025;-72
2022/01/06 04:05:02;;;;;;;43.10;17.75;;;5.50;99.90;;;;;;5047838;28;20115;-71
2022/01/06 04:07:27;;;;;;;52.47;37.75;;;5.50;99.90;;;;;;5044868;28;20040;-71
2022/01/06 04:09:53;;;;;;;35.35;16.27;;;5.50;99.90;;;;;;5055238;28;20029;-71
2022/01/06 04:12:19;;;;;;;29.58;15.00;;;5.50;99.90;;;;;;5056812;28;20394;-71
2022/01/06 04:14:44;;;;;;;40.38;31.80;;;5.50;99.90;;;;;;5055696;28;20033;-71
2022/01/06 04:17:10;;;;;;;45.30;32.88;;;5.50;99.90;;;;;;5039266;28;20368;-72
2022/01/06 04:19:36;;;;;;;28.55;14.98;;;5.50;99.90;;;;;;5035906;28;20025;-71
2022/01/06 04:22:04;;;;;;;50.78;37.47;;;5.60;99.90;;;;;;5036771;28;20034;-71
2022/01/06 04:24:29;;;;;;;59.13;40.67;;;5.50;99.90;;;;;;5037478;28;20116;-72
2022/01/06 04:26:55;;;;;;;33.13;15.30;;;5.60;99.90;;;;;;5035494;28;20116;-71
2022/01/06 04:29:21;;;;;;;50.05;35.30;;;5.60;99.90;;;;;;5055260;28;20029;-72
2022/01/06 04:31:46;;;;;;;25.90;10.85;;;5.50;99.90;;;;;;5041650;28;20029;-72
2022/01/06 04:34:12;;;;;;;32.25;26.30;;;5.60;99.90;;;;;;5036648;28;20068;-72
2022/01/06 04:36:40;;;;;;;39.28;30.42;;;5.50;99.90;;;;;;5035385;28;20057;-72
2022/01/06 04:39:06;;;;;;;31.25;13.38;;;5.50;99.90;;;;;;5036209;28;20029;-72
2022/01/06 04:41:32;;;;;;;37.47;28.77;;;5.40;99.90;;;;;;5036437;28;20079;-71
2022/01/06 04:43:57;;;;;;;27.20;12.43;;;5.40;99.90;;;;;;5036294;28;20037;-72
2022/01/06 04:46:23;;;;;;;39.08;30.75;;;5.40;99.90;;;;;;5036474;28;20113;-71
2022/01/06 04:48:49;;;;;;;34.17;27.40;;;5.50;99.90;;;;;;5042202;28;20018;-71
2022/01/06 04:51:15;;;;;;;32.10;25.70;;;5.60;99.90;;;;;;5036349;28;20056;-72
2022/01/06 04:53:41;;;;;;;33.35;26.25;;;5.70;99.90;;;;;;5036202;28;20026;-72
2022/01/06 04:56:06;;;;;;;28.98;12.95;;;5.80;99.90;;;;;;5036528;28;20449;-72
2022/01/06 04:58:32;;;;;;;30.25;25.10;;;5.90;99.90;;;;;;5047329;28;20025;-71
2022/01/06 05:00:58;;;;;;;28.60;23.60;;;5.90;99.90;;;;;;5059263;28;20070;-70
2022/01/06 05:03:24;;;;;;;31.02;23.23;;;6.00;99.90;;;;;;5056180;28;20036;-71
2022/01/06 05:05:49;;;;;;;19.27;9.63;;;6.10;99.90;;;;;;5054483;28;20021;-70
2022/01/06 05:08:15;;;;;;;20.33;9.88;;;6.20;99.90;;;;;;5036484;28;20041;-71
2022/01/06 05:10:41;;;;;;;25.15;19.52;;;6.20;99.90;;;;;;5036130;28;20030;-71
2022/01/06 05:13:06;;;;;;;28.63;21.65;;;6.20;99.90;;;;;;5056273;28;20132;-71
2022/01/06 05:15:32;;;;;;;28.70;21.85;;;6.30;99.90;;;;;;5056806;28;20104;-71
2022/01/06 05:17:58;;;;;;;20.17;8.93;;;6.40;99.90;;;;;;5035189;28;20072;-72
2022/01/06 05:20:25;;;;;;;29.63;21.15;;;6.40;99.90;;;;;;5050886;28;20029;-72
2022/01/06 05:22:55;;;;;;;30.25;21.52;;;6.40;99.90;;;;;;5053873;28;20086;-71
2022/01/06 05:25:25;;;;;;;18.75;9.18;;;6.50;99.90;;;;;;5053390;28;20114;-72
2022/01/06 05:27:51;;;;;;;28.15;20.77;;;6.40;99.90;;;;;;5049036;28;20036;-72
2022/01/06 05:30:17;;;;;;;29.00;20.95;;;6.40;99.90;;;;;;5053817;28;20055;-72
2022/01/06 05:32:42;;;;;;;30.67;22.63;;;6.50;99.90;;;;;;5055238;28;20199;-71
2022/01/06 05:35:09;;;;;;;18.85;9.98;;;6.50;99.90;;;;;;5053584;28;20025;-71
2022/01/06 05:37:34;;;;;;;31.15;23.73;;;6.50;99.90;;;;;;5050175;28;20506;-71
2022/01/06 05:40:00;;;;;;;33.03;25.38;;;6.50;99.90;;;;;;5036344;28;20116;-75
2022/01/06 05:42:25;;;;;;;25.30;11.10;;;6.50;99.90;;;;;;5046120;28;20029;-70
2022/01/06 05:44:51;;;;;;;38.03;27.50;;;6.50;99.90;;;;;;5036507;28;20040;-71
2022/01/06 05:47:17;;;;;;;37.88;27.73;;;6.50;99.90;;;;;;5038940;28;20029;-70
2022/01/06 05:49:43;;;;;;;40.05;28.38;;;6.50;99.90;;;;;;5049586;28;20059;-72
2022/01/06 05:52:08;;;;;;;39.70;29.52;;;6.40;99.90;;;;;;5054450;28;20028;-71
2022/01/06 05:54:34;;;;;;;35.40;26.80;;;6.50;99.90;;;;;;5054926;28;20068;-70
2022/01/06 05:57:00;;;;;;;27.95;11.77;;;6.40;99.90;;;;;;5060165;28;20056;-71
2022/01/06 05:59:28;;;;;;;42.75;30.55;;;6.40;99.90;;;;;;5048383;28;20026;-72
2022/01/06 06:01:54;;;;;;;35.47;26.67;;;6.30;99.90;;;;;;5050008;28;20021;-71
2022/01/06 06:04:19;;;;;;;23.38;11.32;;;6.20;99.90;;;;;;5053375;28;20110;-70
2022/01/06 06:06:45;;;;;;;33.67;25.13;;;6.10;99.90;;;;;;5042905;28;20475;-71
2022/01/06 06:09:11;;;;;;;36.65;25.10;;;6.10;99.90;;;;;;5057124;28;20464;-70
2022/01/06 06:11:37;;;;;;;37.15;25.95;;;6.10;99.90;;;;;;5049991;28;20030;-67
2022/01/06 06:14:03;;;;;;;36.95;26.77;;;6.20;99.90;;;;;;5066674;28;20041;-74
2022/01/06 06:16:28;;;;;;;20.30;10.45;;;6.30;99.90;;;;;;5055266;28;20395;-79
2022/01/06 06:18:54;;;;;;;34.75;24.88;;;6.50;99.90;;;;;;5051824;28;20055;-74
2022/01/06 06:21:20;;;;;;;37.03;26.95;;;6.50;99.90;;;;;;5053138;28;20022;-71
2022/01/06 06:23:46;;;;;;;25.33;11.25;;;6.60;99.90;;;;;;5054382;28;20036;-72
2022/01/06 06:26:11;;;;;;;38.95;28.70;;;6.60;99.90;;;;;;5059235;28;20025;-70
2022/01/06 06:28:37;;;;;;;40.55;29.67;;;6.60;99.90;;;;;;5047490;28;20037;-67
2022/01/06 06:31:03;;;;;;;41.05;30.00;;;6.60;99.90;;;;;;5035657;28;20040;-67
2022/01/06 06:33:28;;;;;;;21.27;11.18;;;6.70;99.90;;;;;;5035828;28;20037;-68
2022/01/06 06:35:54;;;;;;;37.90;28.80;;;6.70;99.90;;;;;;5045833;28;20033;-67
2022/01/06 06:38:20;;;;;;;24.33;11.93;;;6.70;99.90;;;;;;5054143;28;20047;-67
2022/01/06 06:40:46;;;;;;;38.90;29.02;;;6.70;99.90;;;;;;5055950;28;20029;-70
2022/01/06 06:43:14;;;;;;;38.42;28.23;;;6.70;99.90;;;;;;5043731;28;20030;-70
2022/01/06 06:45:41;;;;;;;39.85;29.80;;;6.80;99.90;;;;;;5061351;28;20056;-72
2022/01/06 06:48:07;;;;;;;38.45;28.73;;;6.80;99.90;;;;;;5051502;28;20054;-72
2022/01/06 06:50:33;;;;;;;27.20;13.73;;;6.70;99.50;;;;;;5060828;28;20033;-70
2022/01/06 06:52:59;;;;;;;39.80;28.83;;;6.60;99.20;;;;;;5053424;28;20039;-71
2022/01/06 06:55:24;;;;;;;36.50;26.77;;;6.50;99.80;;;;;;5053516;28;20029;-70
2022/01/06 06:57:50;;;;;;;35.78;26.42;;;6.50;99.90;;;;;;5052819;28;20530;-71
2022/01/06 07:00:16;;;;;;;26.05;11.68;;;6.50;99.90;;;;;;5052613;28;20383;-70
2022/01/06 07:02:42;;;;;;;26.73;12.40;;;6.50;99.90;;;;;;5053602;28;20029;-70
2022/01/06 07:05:09;;;;;;;42.97;30.42;;;6.40;99.90;;;;;;5053822;28;20174;-71
2022/01/06 07:07:35;;;;;;;46.03;33.50;;;6.40;99.90;;;;;;5053746;28;20082;-71
2022/01/06 07:10:02;;;;;;;33.30;16.55;;;6.50;99.90;;;;;;5052437;28;20120;-71
2022/01/06 07:12:29;;;;;;;52.15;36.25;;;6.50;99.90;;;;;;5052302;28;20142;-71
2022/01/06 07:14:55;;;;;;;58.22;41.08;;;6.60;99.90;;;;;;5052424;28;20392;-71
2022/01/06 07:17:20;;;;;;;55.30;41.50;;;6.80;99.90;;;;;;5053399;28;20029;-71
2022/01/06 07:19:46;;;;;;;53.75;36.72;;;6.90;99.90;;;;;;5053614;28;20353;-71
2022/01/06 07:22:12;;;;;;;42.35;30.83;;;7.10;99.90;;;;;;5052402;28;20025;-71
2022/01/06 07:24:37;;;;;;;37.97;28.02;;;7.20;99.90;;;;;;5053409;28;20057;-70
2022/01/06 07:27:04;;;;;;;34.00;23.67;;;7.30;99.50;;;;;;5037088;28;20033;-71
2022/01/06 07:29:30;;;;;;;29.85;21.33;;;7.40;98.90;;;;;;5034384;28;20033;-71
2022/01/06 07:31:56;;;;;;;25.88;20.20;;;7.50;98.00;;;;;;5037385;28;20486;-71
2022/01/06 07:34:21;;;;;;;25.60;18.90;;;7.50;96.70;;;;;;5037689;28;20029;-71
2022/01/06 07:36:47;;;;;;;26.75;20.45;;;7.50;96.00;;;;;;5043294;28;20040;-70
2022/01/06 07:39:13;;;;;;;26.20;18.98;;;7.50;96.50;;;;;;5056715;28;20104;-71
2022/01/06 07:41:38;;;;;;;24.88;18.73;;;7.50;96.50;;;;;;5057219;28;20037;-71
2022/01/06 07:44:07;;;;;;;25.25;19.15;;;7.50;96.60;;;;;;5057467;28;20036;-71
2022/01/06 07:46:36;;;;;;;25.85;18.90;;;7.60;96.40;;;;;;5057406;28;20083;-71
2022/01/06 07:49:03;;;;;;;26.60;21.15;;;7.60;96.10;;;;;;5057423;28;20025;-71
2022/01/06 07:51:30;;;;;;;24.75;19.23;;;7.70;96.00;;;;;;5057487;28;20032;-71
2022/01/06 07:53:58;;;;;;;28.65;20.13;;;7.70;95.60;;;;;;5057472;28;20037;-71
2022/01/06 07:56:24;;;;;;;26.08;19.42;;;7.70;95.50;;;;;;5056113;28;20029;-71
2022/01/06 07:58:50;;;;;;;28.98;21.85;;;7.70;95.60;;;;;;5057142;28;20035;-70
2022/01/06 08:01:16;;;;;;;29.45;21.73;;;7.70;95.40;;;;;;5057034;28;20402;-71
2022/01/06 08:03:42;;;;;;;29.58;22.75;;;7.80;95.20;;;;;;5055941;28;20051;-71
2022/01/06 08:06:09;;;;;;;32.30;23.65;;;7.80;95.10;;;;;;5057090;28;20029;-71
2022/01/06 08:08:35;;;;;;;30.80;23.17;;;7.80;95.00;;;;;;5055858;28;20029;-71
2022/01/06 08:11:01;;;;;;;33.15;23.52;;;7.70;94.80;;;;;;5055695;28;20057;-71
2022/01/06 08:13:27;;;;;;;30.38;21.90;;;7.60;94.80;;;;;;5057468;28;20081;-70
2022/01/06 08:15:53;;;;;;;31.85;22.17;;;7.60;95.50;;;;;;5056919;28;20091;-71
2022/01/06 08:18:18;;;;;;;30.58;23.33;;;7.60;95.50;;;;;;5057098;28;20032;-71
2022/01/06 08:20:44;;;;;;;28.23;20.50;;;7.60;95.30;;;;;;5056876;28;20033;-71
2022/01/06 08:23:10;;;;;;;26.92;20.85;;;7.60;95.60;;;;;;5055485;28;20029;-71
2022/01/06 08:25:36;;;;;;;25.50;19.02;;;7.70;95.40;;;;;;5055427;28;20406;-71
2022/01/06 08:28:03;;;;;;;28.23;19.45;;;7.70;95.20;;;;;;5056646;28;20033;-74
2022/01/06 08:30:29;;;;;;;24.65;18.45;;;7.70;95.00;;;;;;5056422;28;20374;-71
2022/01/06 08:32:55;;;;;;;25.92;19.77;;;7.70;94.60;;;;;;5055602;28;20033;-69
2022/01/06 08:35:22;;;;;;;26.35;19.92;;;7.70;94.80;;;;;;5056600;28;20108;-69
2022/01/06 08:37:47;;;;;;;28.63;20.88;;;7.60;94.80;;;;;;5056794;28;20037;-70
2022/01/06 08:40:13;;;;;;;25.15;19.90;;;7.60;95.10;;;;;;5055311;28;20025;-69
2022/01/06 08:42:39;;;;;;;26.63;19.73;;;7.50;95.40;;;;;;5055354;28;20104;-69
2022/01/06 08:45:06;;;;;;;28.35;21.15;;;7.50;95.70;;;;;;5050611;28;20160;-70
2022/01/06 08:47:32;;;;;;;29.05;20.92;;;7.50;95.80;;;;;;5041060;28;20451;-66
2022/01/06 08:49:57;;;;;;;27.42;21.02;;;7.50;96.00;;;;;;5054862;28;20031;-68
